Weather observations for the past three days for
San Luis Obispo, San Luis Obispo County-Mc Chesney Field
Metric (Imperial)
Date Time (pdt) Wind (kph) Vis. (km) Weather Sky Cond. Temperature (ºC) Relative Humidity Wind Chill (°C) Heat Index (°C) Pressure Precipitation (cm)
Air Dwpt 6 hour altimeter (cm) sea level (mb) 1 hr 3 hr 6 hr
Max. Min.
04 15:56 NW 28 16.09 Partly Cloudy FEW065 SCT090 17.8 9.4 58% 76.1 1014.6
04 14:56 NW 24 G 39 16.09 A Few Clouds FEW090 18.3 8.3 52% 76.15 1015.0
04 13:56 NW 26 16.09 Mostly Cloudy BKN090 19.4 7.8 47% 76.17 1015.4
04 12:56 NW 22 16.09 Mostly Cloudy BKN046 BKN080 18.3 8.3 52% 76.17 1015.3
04 11:56 Vrbl 11 16.09 Mostly Cloudy FEW038 BKN070 BKN085 17.2 8.3 56% 76.17 1015.3
04 10:56 W 15 16.09 Partly Cloudy SCT036 17.2 8.9 17.8 7.8 58% 76.17 1015.5
04 09:56 W 7 16.09 Partly Cloudy SCT030 16.1 8.3 60% 76.17 1015.5
04 08:56 Calm 16.09 Fair CLR 12.8 8.9 77% 76.2 1015.7
04 07:56 SE 6 16.09 Mostly Cloudy BKN085 10 7.8 86% 76.17 1015.5
04 06:56 SE 6 16.09 Fair CLR 8.9 6.7 86% 76.15 1015.3
04 05:56 Calm 16.09 Fair CLR 8.3 6.7 90% 76.15 1015.0
04 04:56 SE 6 16.09 Mostly Cloudy BKN028 8.9 7.2 11.1 7.8 89% 76.15 1015.0
04 03:56 Calm 16.09 Overcast OVC028 8.9 7.2 89% 76.15 1015.3
04 02:56 SE 6 16.09 Partly Cloudy SCT031 8.9 7.2 89% 76.15 1015.2
04 01:56 SE 6 16.09 A Few Clouds FEW028 7.8 6.1 89% 76.2 1015.8
04 00:56 Calm 16.09 Fair CLR 9.4 7.2 86% 76.2 1015.9
03 23:56 SE 6 16.09 Fair CLR 10 7.8 86% 76.23 1016.0
03 22:56 Calm 16.09 Fair CLR 10.6 8.3 17.8 10.6 86% 76.2 1015.8
03 21:56 Calm 16.09 Partly Cloudy SCT023 12.2 8.3 77% 76.2 1015.7
03 20:56 N 9 16.09 Fair CLR 13.3 9.4 77% 76.15 1015.0
03 19:56 NW 13 16.09 Fair CLR 13.9 8.9 72% 76.07 1014.3
03 18:56 NW 15 16.09 Partly Cloudy SCT030 15.6 7.2 58% 76.07 1014.1
03 17:56 NW 20 16.09 Partly Cloudy SCT049 16.7 8.9 60% 76.05 1013.7
03 16:56 NW 20 G 43 16.09 Overcast BKN048 OVC055 16.7 7.8 19.4 15.6 56% 76 1013.2
03 15:56 NW 24 G 39 16.09 Mostly Cloudy BKN049 18.3 7.2 49% 76 1013.1
03 14:56 NW 20 16.09 Mostly Cloudy BKN045 17.2 7.2 52% 76.02 1013.5
03 13:56 NW 17 G 28 16.09 Overcast OVC044 19.4 7.8 47% 76.02 1013.5
03 12:56 Calm 16.09 Partly Cloudy SCT043 17.8 7.8 52% 76.05 1013.6
03 11:56 NW 7 16.09 Overcast BKN042 OVC050 17.8 7.8 52% 76.1 1014.2
03 10:56 N 6 16.09 Overcast FEW033 BKN040 OVC050 15.6 8.9 16.1 12.2 65% 76.1 1014.6
03 09:56 NW 9 16.09 Overcast FEW017 OVC049 14.4 10 75% 76.1 1014.6
03 08:56 NW 13 16.09 Overcast BKN023 OVC030 13.3 9.4 77% 76.1 1014.3
03 07:56 NW 7 16.09 Overcast BKN020 BKN039 OVC047 12.8 9.4 80% 76.05 1013.8
03 06:56 S 6 16.09 Overcast BKN038 OVC046 12.8 9.4 80% 76.02 1013.4
03 05:56 Calm 16.09 Overcast BKN028 OVC040 12.2 8.9 80% 75.97 1012.8
03 04:56 Calm 16.09 Overcast OVC037 12.8 8.9 13.3 12.2 77% 75.95 1012.3
03 03:56 W 6 16.09 Overcast OVC035 12.8 9.4 80% 75.97 1012.5
03 02:56 N 6 16.09 Overcast OVC032 12.8 9.4 80% 75.95 1012.3
03 01:56 Calm 16.09 Overcast OVC030 12.8 10 83% 75.95 1012.6
03 00:56 Calm 16.09 Overcast OVC022 12.8 10.6 87% 76 1013.2
02 23:56 NW 9 16.09 Overcast OVC020 13.3 10.6 84% 75.97 1012.9
02 22:56 W 9 16.09 Overcast OVC017 13.3 10.6 18.3 12.2 84% 75.95 1012.6
02 21:56 NW 13 16.09 Overcast OVC016 13.3 10 81% 75.95 1012.3
02 20:56 NW 11 16.09 Fair CLR 12.8 10 83% 75.92 1012.0
02 19:56 N 15 16.09 Partly Cloudy FEW017 SCT024 13.3 10 81% 75.9 1011.6
02 18:56 NW 19 16.09 Fair CLR 14.4 10 75% 75.87 1011.4
02 17:56 NW 20 16.09 Fair CLR 16.7 10.6 67% 75.87 1011.4
02 16:56 Vrbl 7 16.09 Fair CLR 18.3 10.6 18.9 13.3 61% 75.87 1011.3
02 15:56 SW 11 16.09 Fair CLR 18.9 11.1 61% 75.9 1011.8
02 14:56 Calm 16.09 Overcast OVC025 18.9 11.1 61% 75.97 1012.8
02 13:56 W 7 16.09 Overcast OVC023 16.7 11.7 73% 76.05 1013.9
02 12:56 NW 11 16.09 Overcast OVC018 15.6 11.7 78% 76.1 1014.6
02 11:56 Calm 16.09 Overcast OVC015 15 11.1 78% 76.15 1015.3
02 10:56 Calm 16.09 Overcast OVC011 13.9 11.1 13.9 12.2 83% 76.17 1015.4
02 09:56 S 6 16.09 Overcast OVC010 13.3 11.1 87% 76.15 1015.2
02 08:56 S 7 16.09 Overcast OVC009 12.8 11.1 90% 76.12 1014.8
02 07:56 S 7 16.09 Overcast OVC009 12.8 10.6 87% 76.1 1014.5
02 06:56 SE 6 16.09 Overcast OVC009 12.8 10.6 87% 76.07 1014.2
02 05:56 SE 7 16.09 Overcast OVC008 12.2 10.6 90% 76.07 1014.2
02 04:56 Calm 16.09 Overcast OVC008 12.2 10.6 13.3 12.2 90% 76.02 1013.5
02 03:56 Vrbl 6 16.09 Overcast OVC008 12.2 10.6 90% 76.05 1013.6
02 02:56 W 7 16.09 Overcast OVC008 12.2 10.6 90% 76 1013.1
02 01:56 NW 13 16.09 Overcast OVC009 12.2 10.6 90% 76.07 1013.9
02 00:56 NW 11 16.09 Overcast OVC009 12.8 10.6 87% 76.07 1014.0
01 23:56 NW 13 16.09 Overcast OVC009 12.8 11.1 90% 76.1 1014.5
01 22:56 NW 15 16.09 Overcast OVC010 13.3 11.1 18.3 13.3 87% 76.12 1014.8
01 21:56 NW 15 16.09 Overcast OVC011 13.3 11.1 87% 76.12 1014.8
01 20:56 NW 19 16.09 Overcast OVC012 13.3 11.1 87% 76.1 1014.6
01 19:56 NW 19 16.09 Fair CLR 13.3 10.6 84% 76.05 1013.8
01 18:56 NW 20 16.09 A Few Clouds FEW022 14.4 11.1 81% 76.02 1013.3
01 17:56 NW 22 16.09 Fair CLR 16.1 11.7 75% 76 1013.1
01 16:56 NW 20 16.09 Fair CLR 18.3 12.2 21.1 14.4 68% 76 1013.1
Date Time (pdt) Wind (kph) Vis. (km) Weather Sky Cond. Air Dwpt Max. Min. Relative Humidity Wind Chill (°C) Heat Index (°C) altimeter (cm) sea level (mb) 1 hr 3 hr 6 hr
6 hour
Temperature (ºC) Pressure Precipitation (cm)